createdAt,value
2023-01-29T00:00:25.087Z,-2.06
2023-01-29T00:01:25.659Z,-2.01
2023-01-29T00:02:25.180Z,-1.98
2023-01-29T00:03:25.431Z,-1.98
2023-01-29T00:04:26.847Z,-1.96
2023-01-29T00:05:28.195Z,-1.96
2023-01-29T00:06:25.780Z,-1.92
2023-01-29T00:07:25.156Z,-1.89
2023-01-29T00:08:25.610Z,-1.89
2023-01-29T00:09:25.052Z,-1.88
2023-01-29T00:10:25.469Z,-1.90
2023-01-29T00:11:24.881Z,-1.96
2023-01-29T00:12:25.347Z,-1.96
2023-01-29T00:13:25.826Z,-2.00
2023-01-29T00:14:25.225Z,-2.06
2023-01-29T00:15:26.733Z,-2.07
2023-01-29T00:16:25.996Z,-2.10
2023-01-29T00:17:25.500Z,-2.11
2023-01-29T00:18:24.930Z,-2.13
2023-01-29T00:19:26.340Z,-2.13
2023-01-29T00:20:24.765Z,-2.13
2023-01-29T00:21:26.171Z,-2.16
2023-01-29T00:22:26.610Z,-2.18
2023-01-29T00:23:25.460Z,-2.14
2023-01-29T00:24:25.543Z,-2.10
2023-01-29T00:25:24.934Z,-2.07
2023-01-29T00:26:25.334Z,-2.10
2023-01-29T00:27:24.726Z,-2.13
2023-01-29T00:28:25.196Z,-2.13
2023-01-29T00:29:24.967Z,-2.10
2023-01-29T00:30:25.086Z,-2.18
2023-01-29T00:31:24.592Z,-2.21
2023-01-29T00:32:24.954Z,-2.22
2023-01-29T00:33:25.425Z,-2.25
2023-01-29T00:34:24.880Z,-2.26
2023-01-29T00:35:25.346Z,-2.26
2023-01-29T00:36:24.674Z,-2.26
2023-01-29T00:37:25.105Z,-2.32
2023-01-29T00:38:24.603Z,-2.33
2023-01-29T00:39:33.677Z,-2.35
2023-01-29T00:40:25.453Z,-2.35
2023-01-29T00:41:24.811Z,-2.35
2023-01-29T00:42:26.220Z,-2.38
2023-01-29T00:43:25.655Z,-2.32
2023-01-29T00:44:26.106Z,-2.32
2023-01-29T00:45:24.540Z,-2.32
2023-01-29T00:46:25.008Z,-2.32
2023-01-29T00:47:25.332Z,-2.35
2023-01-29T00:48:25.913Z,-2.32
2023-01-29T00:49:25.341Z,-2.32
2023-01-29T00:50:24.685Z,-2.32
2023-01-29T00:51:25.132Z,-2.33
2023-01-29T00:52:24.553Z,-2.33
2023-01-29T00:53:24.943Z,-2.35
2023-01-29T00:54:24.341Z,-2.35
2023-01-29T00:55:24.793Z,-2.41
2023-01-29T00:56:25.210Z,-2.40
2023-01-29T00:57:24.623Z,-2.40
2023-01-29T00:58:25.040Z,-2.41
2023-01-29T00:59:25.504Z,-2.41
2023-01-29T01:00:25.845Z,-2.43
2023-01-29T01:01:25.206Z,-2.43
2023-01-29T01:02:24.821Z,-2.43
2023-01-29T01:03:25.101Z,-2.43
2023-01-29T01:04:26.517Z,-2.40
2023-01-29T01:05:25.921Z,-2.43
2023-01-29T01:06:24.335Z,-2.41
2023-01-29T01:07:24.809Z,-2.41
2023-01-29T01:08:24.193Z,-2.40
2023-01-29T01:09:24.615Z,-2.33
2023-01-29T01:10:24.026Z,-2.38
2023-01-29T01:11:24.486Z,-2.37
2023-01-29T01:12:24.960Z,-2.37
2023-01-29T01:13:24.384Z,-2.35
2023-01-29T01:14:24.821Z,-2.35
2023-01-29T01:15:24.203Z,-2.25
2023-01-29T01:16:24.722Z,-2.33
2023-01-29T01:17:24.126Z,-2.29
2023-01-29T01:18:24.550Z,-2.32
2023-01-29T01:19:23.957Z,-2.32
2023-01-29T01:20:24.409Z,-2.29
2023-01-29T01:21:24.824Z,-2.29
2023-01-29T01:22:24.251Z,-2.28
2023-01-29T01:23:24.746Z,-2.26
2023-01-29T01:24:25.062Z,-2.25
2023-01-29T01:25:24.582Z,-2.25
2023-01-29T01:26:24.937Z,-2.28
2023-01-29T01:27:25.417Z,-2.28
2023-01-29T01:28:24.827Z,-2.28
2023-01-29T01:29:24.311Z,-2.29
2023-01-29T01:30:24.771Z,-2.32
2023-01-29T01:31:24.317Z,-2.32
2023-01-29T01:32:24.612Z,-2.35
2023-01-29T01:33:24.004Z,-2.37
2023-01-29T01:34:24.701Z,-2.37
2023-01-29T01:35:23.878Z,-2.38
2023-01-29T01:36:24.276Z,-2.37
2023-01-29T01:37:23.737Z,-2.37
2023-01-29T01:38:24.170Z,-2.38
2023-01-29T01:39:24.630Z,-2.35
2023-01-29T01:40:24.115Z,-2.32
2023-01-29T01:41:24.506Z,-2.33
2023-01-29T01:42:24.871Z,-2.33
2023-01-29T01:43:25.341Z,-2.29
2023-01-29T01:44:23.770Z,-2.32
2023-01-29T01:45:24.226Z,-2.32
2023-01-29T01:46:23.675Z,-2.35
2023-01-29T01:47:24.100Z,-2.35
2023-01-29T01:48:25.571Z,-2.35
2023-01-29T01:49:23.945Z,-2.37
2023-01-29T01:50:24.456Z,-2.37
2023-01-29T01:51:23.826Z,-2.38
2023-01-29T01:52:24.298Z,-2.33
2023-01-29T01:53:24.660Z,-2.33
2023-01-29T01:54:25.105Z,-2.33
2023-01-29T01:55:23.583Z,-2.29
2023-01-29T01:56:24.191Z,-2.29
2023-01-29T01:57:24.402Z,-2.29
2023-01-29T01:58:24.860Z,-2.32
2023-01-29T01:59:25.280Z,-2.28
2023-01-29T02:00:24.690Z,-2.28
2023-01-29T02:01:25.842Z,-2.32
2023-01-29T02:02:23.622Z,-2.32
2023-01-29T02:03:24.080Z,-2.37
2023-01-29T02:04:23.471Z,-2.35
2023-01-29T02:05:23.914Z,-2.41
2023-01-29T02:06:24.268Z,-2.43
2023-01-29T02:07:23.766Z,-2.44
2023-01-29T02:08:24.155Z,-2.47
2023-01-29T02:09:24.536Z,-2.50
2023-01-29T02:10:24.963Z,-2.48
2023-01-29T02:11:23.381Z,-2.50
2023-01-29T02:12:23.835Z,-2.51
2023-01-29T02:13:23.299Z,-2.50
2023-01-29T02:14:23.712Z,-2.50
2023-01-29T02:15:24.115Z,-2.53
2023-01-29T02:16:23.530Z,-2.51
2023-01-29T02:17:25.013Z,-2.53
2023-01-29T02:18:23.396Z,-2.50
2023-01-29T02:19:24.804Z,-2.51
2023-01-29T02:20:24.209Z,-2.51
2023-01-29T02:21:23.673Z,-2.50
2023-01-29T02:22:24.114Z,-2.51
2023-01-29T02:23:23.582Z,-2.48
2023-01-29T02:24:24.054Z,-2.51
2023-01-29T02:25:23.392Z,-2.53
2023-01-29T02:26:23.821Z,-2.55
2023-01-29T02:27:23.216Z,-2.53
2023-01-29T02:28:24.675Z,-2.53
2023-01-29T02:29:23.624Z,-2.56
2023-01-29T02:30:24.516Z,-2.55
2023-01-29T02:31:24.922Z,-2.55
2023-01-29T02:32:24.314Z,-2.53
2023-01-29T02:33:24.776Z,-2.53
2023-01-29T02:34:24.190Z,-2.56
2023-01-29T02:35:25.056Z,-2.56
2023-01-29T02:36:23.125Z,-2.59
2023-01-29T02:37:24.592Z,-2.59
2023-01-29T02:38:23.032Z,-2.58
2023-01-29T02:39:23.529Z,-2.59
2023-01-29T02:40:22.991Z,-2.61
2023-01-29T02:41:23.477Z,-2.62
2023-01-29T02:42:22.840Z,-2.64
2023-01-29T02:43:23.359Z,-2.65
2023-01-29T02:44:23.790Z,-2.66
2023-01-29T02:45:23.225Z,-2.68
2023-01-29T02:46:23.705Z,-2.69
2023-01-29T02:47:23.166Z,-2.71
2023-01-29T02:48:23.620Z,-2.74
2023-01-29T02:49:23.075Z,-2.68
2023-01-29T02:50:23.512Z,-2.71
2023-01-29T02:51:22.935Z,-2.76
2023-01-29T02:52:23.585Z,-2.74
2023-01-29T02:53:22.860Z,-2.72
2023-01-29T02:54:23.335Z,-2.74
2023-01-29T02:55:22.783Z,-2.72
2023-01-29T02:56:23.279Z,-2.76
2023-01-29T02:57:22.677Z,-2.74
2023-01-29T02:58:23.336Z,-2.72
2023-01-29T02:59:23.658Z,-2.77
2023-01-29T03:00:23.070Z,-2.76
2023-01-29T03:01:23.654Z,-2.72
2023-01-29T03:02:23.005Z,-2.72
2023-01-29T03:03:23.497Z,-2.71
2023-01-29T03:04:23.837Z,-2.74
2023-01-29T03:05:24.296Z,-2.74
2023-01-29T03:06:23.776Z,-2.71
2023-01-29T03:07:23.291Z,-2.66
2023-01-29T03:08:22.705Z,-2.58
2023-01-29T03:09:23.304Z,-2.58
2023-01-29T03:10:22.625Z,-2.56
2023-01-29T03:11:23.116Z,-2.53
2023-01-29T03:12:22.565Z,-2.51
2023-01-29T03:13:23.059Z,-2.48
2023-01-29T03:14:22.486Z,-2.46
2023-01-29T03:15:23.031Z,-2.50
2023-01-29T03:16:22.463Z,-2.48
2023-01-29T03:17:22.883Z,-2.55
2023-01-29T03:18:23.376Z,-2.61
2023-01-29T03:19:22.832Z,-2.59
2023-01-29T03:20:23.306Z,-2.61
2023-01-29T03:21:22.749Z,-2.62
2023-01-29T03:22:23.228Z,-2.64
2023-01-29T03:23:23.618Z,-2.65
2023-01-29T03:24:23.150Z,-2.65
2023-01-29T03:25:22.430Z,-2.66
2023-01-29T03:26:23.201Z,-2.64
2023-01-29T03:27:22.379Z,-2.62
2023-01-29T03:28:22.815Z,-2.64
2023-01-29T03:29:22.295Z,-2.62
2023-01-29T03:30:22.710Z,-2.64
2023-01-29T03:31:23.378Z,-2.61
2023-01-29T03:32:22.614Z,-2.62
2023-01-29T03:33:23.110Z,-2.61
2023-01-29T03:34:22.499Z,-2.59
2023-01-29T03:35:22.981Z,-2.56
2023-01-29T03:36:22.408Z,-2.48
2023-01-29T03:37:23.051Z,-2.50
2023-01-29T03:38:22.231Z,-2.51
2023-01-29T03:39:22.691Z,-2.48
2023-01-29T03:40:23.039Z,-2.53
2023-01-29T03:41:23.557Z,-2.53
2023-01-29T03:42:23.081Z,-2.47
2023-01-29T03:43:22.526Z,-2.41
2023-01-29T03:44:22.977Z,-2.33
2023-01-29T03:45:22.386Z,-2.33
2023-01-29T03:46:22.834Z,-2.35
2023-01-29T03:47:22.259Z,-2.33
2023-01-29T03:48:22.810Z,-2.40
2023-01-29T03:49:22.120Z,-2.38
2023-01-29T03:50:22.605Z,-2.43
2023-01-29T03:51:22.081Z,-2.46
2023-01-29T03:52:22.549Z,-2.46
2023-01-29T03:53:22.010Z,-2.53
2023-01-29T03:54:22.504Z,-2.50
2023-01-29T03:55:22.960Z,-2.51
2023-01-29T03:56:23.294Z,-2.53
2023-01-29T03:57:22.790Z,-2.56
2023-01-29T03:58:23.180Z,-2.56
2023-01-29T03:59:22.708Z,-2.65
2023-01-29T04:00:22.133Z,-2.72
2023-01-29T04:01:22.603Z,-2.80
2023-01-29T04:02:22.966Z,-2.83
2023-01-29T04:03:22.502Z,-2.87
2023-01-29T04:04:22.982Z,-2.90
2023-01-29T04:05:22.444Z,-2.97
2023-01-29T04:06:22.899Z,-3.00
2023-01-29T04:07:22.279Z,-3.04
2023-01-29T04:08:22.731Z,-3.02
2023-01-29T04:09:22.210Z,-3.05
2023-01-29T04:10:22.615Z,-3.04
2023-01-29T04:11:22.033Z,-3.02
2023-01-29T04:12:22.490Z,-3.07
2023-01-29T04:13:21.900Z,-3.08
2023-01-29T04:14:22.336Z,-3.08
2023-01-29T04:15:21.752Z,-3.05
2023-01-29T04:16:22.322Z,-3.10
2023-01-29T04:17:21.650Z,-3.07
2023-01-29T04:18:22.120Z,-3.07
2023-01-29T04:19:22.652Z,-3.04
2023-01-29T04:20:22.002Z,-3.05
2023-01-29T04:21:22.652Z,-3.04
2023-01-29T04:22:22.184Z,-3.01
2023-01-29T04:23:22.675Z,-3.00
2023-01-29T04:24:22.174Z,-3.00
2023-01-29T04:25:21.570Z,-3.00
2023-01-29T04:26:22.073Z,-2.98
2023-01-29T04:27:22.679Z,-2.98
2023-01-29T04:28:22.855Z,-2.98
2023-01-29T04:29:22.336Z,-2.97
2023-01-29T04:30:21.595Z,-2.95
2023-01-29T04:31:22.212Z,-2.90
2023-01-29T04:32:21.471Z,-2.90
2023-01-29T04:33:22.006Z,-2.90
2023-01-29T04:34:22.449Z,-2.89
2023-01-29T04:35:21.841Z,-2.86
2023-01-29T04:36:22.304Z,-2.84
2023-01-29T04:37:22.691Z,-2.80
2023-01-29T04:38:22.200Z,-2.77
2023-01-29T04:39:21.645Z,-2.74
2023-01-29T04:40:22.100Z,-2.74
2023-01-29T04:41:21.523Z,-2.72
2023-01-29T04:42:21.981Z,-2.66
2023-01-29T04:43:21.420Z,-2.68
2023-01-29T04:44:22.135Z,-2.62
2023-01-29T04:45:21.329Z,-2.58
2023-01-29T04:46:21.792Z,-2.61
2023-01-29T04:47:22.348Z,-2.59
2023-01-29T04:48:21.673Z,-2.58
2023-01-29T04:49:22.180Z,-2.62
2023-01-29T04:50:21.599Z,-2.59
2023-01-29T04:51:22.075Z,-2.50
2023-01-29T04:52:21.474Z,-2.46
2023-01-29T04:53:21.945Z,-2.43
2023-01-29T04:54:21.359Z,-2.37
2023-01-29T04:55:21.880Z,-2.32
2023-01-29T04:56:21.240Z,-2.35
2023-01-29T04:57:21.664Z,-2.35
2023-01-29T04:58:22.138Z,-2.41
2023-01-29T04:59:21.519Z,-2.46
2023-01-29T05:00:22.000Z,-2.53
2023-01-29T05:01:21.414Z,-2.58
2023-01-29T05:02:21.820Z,-2.61
2023-01-29T05:03:21.214Z,-2.62
2023-01-29T05:04:21.659Z,-2.65
2023-01-29T05:05:21.072Z,-2.64
2023-01-29T05:06:21.570Z,-2.65
2023-01-29T05:07:21.981Z,-2.62
2023-01-29T05:08:21.415Z,-2.69
2023-01-29T05:09:22.864Z,-2.69
2023-01-29T05:10:22.225Z,-2.71
2023-01-29T05:11:21.802Z,-2.69
2023-01-29T05:12:21.185Z,-2.69
2023-01-29T05:13:22.587Z,-2.66
2023-01-29T05:14:22.000Z,-2.68
2023-01-29T05:15:22.475Z,-2.64
2023-01-29T05:16:20.997Z,-2.69
2023-01-29T05:17:21.478Z,-2.61
2023-01-29T05:18:21.877Z,-2.59
2023-01-29T05:19:21.331Z,-2.55
2023-01-29T05:20:22.714Z,-2.51
2023-01-29T05:21:21.185Z,-2.48
2023-01-29T05:22:21.644Z,-2.48
2023-01-29T05:23:21.029Z,-2.47
2023-01-29T05:24:21.631Z,-2.44
2023-01-29T05:25:20.943Z,-2.44
2023-01-29T05:26:22.275Z,-2.46
2023-01-29T05:27:22.752Z,-2.48
2023-01-29T05:28:21.475Z,-2.50
2023-01-29T05:29:21.645Z,-2.53
2023-01-29T05:30:21.023Z,-2.53
2023-01-29T05:31:21.577Z,-2.56
2023-01-29T05:32:20.912Z,-2.56
2023-01-29T05:33:21.308Z,-2.61
2023-01-29T05:34:20.795Z,-2.61
2023-01-29T05:35:21.259Z,-2.61
2023-01-29T05:36:21.626Z,-2.62
2023-01-29T05:37:22.017Z,-2.62
2023-01-29T05:38:21.455Z,-2.62
2023-01-29T05:39:20.885Z,-2.64
2023-01-29T05:40:21.407Z,-2.64
2023-01-29T05:41:20.746Z,-2.61
2023-01-29T05:42:21.179Z,-2.62
2023-01-29T05:43:20.598Z,-2.59
2023-01-29T05:44:21.038Z,-2.62
2023-01-29T05:45:21.495Z,-2.65
2023-01-29T05:46:20.914Z,-2.61
2023-01-29T05:47:22.309Z,-2.56
2023-01-29T05:48:20.784Z,-2.43
2023-01-29T05:49:22.144Z,-2.38
2023-01-29T05:50:21.556Z,-2.32
2023-01-29T05:51:21.112Z,-2.24
2023-01-29T05:52:21.418Z,-2.21
2023-01-29T05:53:21.877Z,-2.18
2023-01-29T05:54:22.306Z,-2.16
2023-01-29T05:55:20.810Z,-2.18
2023-01-29T05:56:21.228Z,-2.14
2023-01-29T05:57:20.615Z,-2.16
2023-01-29T05:58:21.110Z,-2.21
2023-01-29T05:59:20.465Z,-2.18
2023-01-29T06:00:21.860Z,-2.18
2023-01-29T06:01:21.575Z,-2.22
2023-01-29T06:02:21.720Z,-2.21
2023-01-29T06:03:21.243Z,-2.18
2023-01-29T06:04:20.635Z,-2.08
2023-01-29T06:05:21.989Z,-2.08
2023-01-29T06:06:21.421Z,-2.08
2023-01-29T06:07:21.121Z,-2.07
2023-01-29T06:08:21.225Z,-2.06
2023-01-29T06:09:21.748Z,-2.00
2023-01-29T06:10:22.184Z,-1.98
2023-01-29T06:11:20.731Z,-2.01
2023-01-29T06:12:21.130Z,-2.03
2023-01-29T06:13:22.185Z,-2.04
2023-01-29T06:14:22.014Z,-2.01
2023-01-29T06:15:21.460Z,-2.03
2023-01-29T06:16:21.110Z,-1.98
2023-01-29T06:17:20.476Z,-1.96
2023-01-29T06:18:20.931Z,-1.95
2023-01-29T06:19:20.375Z,-1.95
2023-01-29T06:20:20.915Z,-2.00
2023-01-29T06:21:20.330Z,-2.01
2023-01-29T06:22:20.875Z,-2.06
2023-01-29T06:23:20.221Z,-2.07
2023-01-29T06:24:20.783Z,-2.03
2023-01-29T06:25:20.260Z,-1.98
2023-01-29T06:26:20.696Z,-1.98
2023-01-29T06:27:20.116Z,-1.95
2023-01-29T06:28:20.620Z,-1.92
2023-01-29T06:29:20.061Z,-1.95
2023-01-29T06:30:20.819Z,-1.95
2023-01-29T06:31:36.712Z,-1.96
2023-01-29T06:32:21.470Z,-1.98
2023-01-29T06:33:20.923Z,-2.00
2023-01-29T06:34:20.394Z,-2.00
2023-01-29T06:35:20.895Z,-1.96
2023-01-29T06:36:20.334Z,-1.93
2023-01-29T06:37:21.822Z,-1.88
2023-01-29T06:38:20.220Z,-1.85
2023-01-29T06:39:20.710Z,-1.85
2023-01-29T06:40:20.187Z,-1.85
2023-01-29T06:41:20.904Z,-1.85
2023-01-29T06:42:20.033Z,-1.86
2023-01-29T06:43:20.475Z,-1.83
2023-01-29T06:44:19.902Z,-1.83
2023-01-29T06:45:20.409Z,-1.80
2023-01-29T06:46:19.800Z,-1.82
2023-01-29T06:47:21.375Z,-1.77
2023-01-29T06:48:21.686Z,-1.72
2023-01-29T06:49:21.217Z,-1.70
2023-01-29T06:50:21.602Z,-1.70
2023-01-29T06:51:21.021Z,-1.71
2023-01-29T06:52:20.608Z,-1.70
2023-01-29T06:53:19.990Z,-1.71
2023-01-29T06:54:21.381Z,-1.65
2023-01-29T06:55:19.921Z,-1.65
2023-01-29T06:56:21.305Z,-1.68
2023-01-29T06:57:20.745Z,-1.70
2023-01-29T06:58:20.300Z,-1.74
2023-01-29T06:59:20.644Z,-1.75
2023-01-29T07:00:20.150Z,-1.77
2023-01-29T07:01:35.293Z,-1.78
2023-01-29T07:02:21.174Z,-1.80
2023-01-29T07:03:21.444Z,-1.85
2023-01-29T07:04:19.932Z,-1.89
2023-01-29T07:05:20.383Z,-1.90
2023-01-29T07:06:19.933Z,-1.90
2023-01-29T07:07:20.333Z,-1.85
2023-01-29T07:08:19.690Z,-1.85
2023-01-29T07:09:21.126Z,-1.86
2023-01-29T07:10:19.691Z,-1.95
2023-01-29T07:11:20.995Z,-1.98
2023-01-29T07:12:20.411Z,-1.96
2023-01-29T07:13:19.914Z,-1.96
2023-01-29T07:14:20.463Z,-2.01
2023-01-29T07:15:20.755Z,-2.08
2023-01-29T07:16:20.323Z,-2.10
2023-01-29T07:17:20.667Z,-2.11
2023-01-29T07:18:21.106Z,-2.11
2023-01-29T07:19:19.580Z,-2.11
2023-01-29T07:20:20.160Z,-2.07
2023-01-29T07:21:20.420Z,-2.10
2023-01-29T07:22:20.860Z,-2.08
2023-01-29T07:23:20.291Z,-2.08
2023-01-29T07:24:20.820Z,-2.03
2023-01-29T07:25:20.287Z,-1.96
2023-01-29T07:26:19.644Z,-1.93
2023-01-29T07:27:20.091Z,-1.96
2023-01-29T07:28:20.478Z,-2.00
2023-01-29T07:29:20.925Z,-1.98
2023-01-29T07:30:20.335Z,-2.03
2023-01-29T07:31:20.205Z,-2.04
2023-01-29T07:32:20.272Z,-2.10
2023-01-29T07:33:19.718Z,-2.14
2023-01-29T07:34:21.146Z,-2.16
2023-01-29T07:35:19.591Z,-2.16
2023-01-29T07:36:20.295Z,-2.14
2023-01-29T07:37:19.508Z,-2.18
2023-01-29T07:38:21.970Z,-2.18
2023-01-29T07:39:19.426Z,-2.24
2023-01-29T07:40:20.830Z,-2.24
2023-01-29T07:41:20.272Z,-2.24
2023-01-29T07:42:19.837Z,-2.21
2023-01-29T07:43:20.171Z,-2.24
2023-01-29T07:44:20.626Z,-2.22
2023-01-29T07:45:19.974Z,-2.22
2023-01-29T07:46:19.575Z,-2.22
2023-01-29T07:47:20.051Z,-2.16
2023-01-29T07:48:19.549Z,-2.14
2023-01-29T07:49:20.881Z,-2.11
2023-01-29T07:50:20.300Z,-2.11
2023-01-29T07:51:19.841Z,-2.13
2023-01-29T07:52:21.329Z,-2.13
2023-01-29T07:53:19.783Z,-2.10
2023-01-29T07:54:20.090Z,-2.08
2023-01-29T07:55:19.598Z,-2.08
2023-01-29T07:56:20.015Z,-2.07
2023-01-29T07:57:20.462Z,-2.04
2023-01-29T07:58:19.880Z,-2.04
2023-01-29T07:59:20.400Z,-1.98
2023-01-29T08:00:19.834Z,-1.96
2023-01-29T08:01:20.337Z,-1.92
2023-01-29T08:02:20.782Z,-1.90
2023-01-29T08:03:20.216Z,-1.89
2023-01-29T08:04:20.713Z,-1.86
2023-01-29T08:05:20.096Z,-1.86
2023-01-29T08:06:20.562Z,-1.86
2023-01-29T08:07:19.985Z,-1.85
2023-01-29T08:08:20.476Z,-1.83
2023-01-29T08:09:19.915Z,-1.83
2023-01-29T08:10:20.554Z,-1.80
2023-01-29T08:11:19.832Z,-1.77
2023-01-29T08:12:20.310Z,-1.75
2023-01-29T08:13:19.735Z,-1.68
2023-01-29T08:14:20.235Z,-1.67
2023-01-29T08:15:18.700Z,-1.59
2023-01-29T08:16:20.351Z,-1.56
2023-01-29T08:17:18.630Z,-1.57
2023-01-29T08:18:19.105Z,-1.57
2023-01-29T08:19:19.626Z,-1.54
2023-01-29T08:20:19.365Z,-1.46
2023-01-29T08:21:20.478Z,-1.44
2023-01-29T08:22:19.878Z,-1.39
2023-01-29T08:23:19.389Z,-1.35
2023-01-29T08:24:19.792Z,-1.26
2023-01-29T08:25:20.227Z,-1.20
2023-01-29T08:26:19.660Z,-1.17
2023-01-29T08:27:20.180Z,-1.13
2023-01-29T08:28:19.565Z,-1.08
2023-01-29T08:29:20.040Z,-1.03
2023-01-29T08:30:19.446Z,-1.02
2023-01-29T08:31:18.975Z,-1.00
2023-01-29T08:32:20.637Z,-0.95
2023-01-29T08:33:29.679Z,-0.93
2023-01-29T08:34:20.339Z,-0.89
2023-01-29T08:35:20.142Z,-0.90
2023-01-29T08:36:20.136Z,-0.92
2023-01-29T08:37:19.555Z,-0.95
2023-01-29T08:38:20.005Z,-0.95
2023-01-29T08:39:19.424Z,-0.92
2023-01-29T08:40:20.171Z,-0.90
2023-01-29T08:41:19.294Z,-0.90
2023-01-29T08:42:19.747Z,-0.92
2023-01-29T08:43:20.205Z,-0.90
2023-01-29T08:44:19.656Z,-0.90
2023-01-29T08:45:20.047Z,-0.89
2023-01-29T08:46:19.475Z,-0.92
2023-01-29T08:47:19.902Z,-0.86
2023-01-29T08:48:19.310Z,-0.83
2023-01-29T08:49:18.885Z,-0.83
2023-01-29T08:50:19.662Z,-0.80
2023-01-29T08:51:19.625Z,-0.76
2023-01-29T08:52:20.036Z,-0.74
2023-01-29T08:53:19.441Z,-0.67
2023-01-29T08:54:18.940Z,-0.76
2023-01-29T08:55:19.557Z,-0.73
2023-01-29T08:56:19.730Z,-0.73
2023-01-29T08:57:19.168Z,-0.77
2023-01-29T08:58:19.621Z,-0.76
2023-01-29T08:59:18.068Z,-0.73
2023-01-29T09:00:19.545Z,-0.71
2023-01-29T09:01:19.038Z,-0.73
2023-01-29T09:02:19.416Z,-0.71
2023-01-29T09:03:20.444Z,-0.70
2023-01-29T09:04:20.205Z,-0.67
2023-01-29T09:05:20.110Z,-0.68
2023-01-29T09:06:19.016Z,-0.63
2023-01-29T09:07:19.506Z,-0.58
2023-01-29T09:08:17.961Z,-0.56
2023-01-29T09:09:18.397Z,-0.59
2023-01-29T09:10:19.795Z,-0.62
2023-01-29T09:11:18.289Z,-0.68
2023-01-29T09:12:18.742Z,-0.73
2023-01-29T09:13:18.135Z,-0.73
2023-01-29T09:14:18.577Z,-0.76
2023-01-29T09:15:18.373Z,-0.77
2023-01-29T09:16:19.515Z,-0.78
2023-01-29T09:17:18.861Z,-0.77
2023-01-29T09:18:18.275Z,-0.74
2023-01-29T09:19:19.707Z,-0.78
2023-01-29T09:20:18.165Z,-0.80
2023-01-29T09:21:18.600Z,-0.81
2023-01-29T09:22:18.033Z,-0.80
2023-01-29T09:23:19.376Z,-0.81
2023-01-29T09:24:17.845Z,-0.93
2023-01-29T09:25:19.431Z,-0.86
2023-01-29T09:26:18.788Z,-0.85
2023-01-29T09:27:18.225Z,-0.81
2023-01-29T09:28:18.576Z,-0.81
2023-01-29T09:29:18.916Z,-0.73
2023-01-29T09:30:18.401Z,-0.77
2023-01-29T09:31:18.076Z,-0.73
2023-01-29T09:32:37.613Z,-0.73
2023-01-29T09:33:19.799Z,-0.67
2023-01-29T09:34:18.021Z,-0.68
2023-01-29T09:35:18.764Z,-0.65
2023-01-29T09:36:18.800Z,-0.68
2023-01-29T09:37:21.019Z,-0.70
2023-01-29T09:38:17.709Z,-0.70
2023-01-29T09:39:18.260Z,-0.71
2023-01-29T09:40:17.581Z,-0.71
2023-01-29T09:41:18.019Z,-0.74
2023-01-29T09:42:19.425Z,-0.77
2023-01-29T09:43:18.812Z,-0.73
2023-01-29T09:44:18.327Z,-0.70
2023-01-29T09:45:17.977Z,-0.67
2023-01-29T09:46:19.167Z,-0.70
2023-01-29T09:47:18.532Z,-0.70
2023-01-29T09:48:17.999Z,-0.68
2023-01-29T09:49:19.372Z,-0.70
2023-01-29T09:50:20.198Z,-0.76
2023-01-29T09:51:19.240Z,-0.81
2023-01-29T09:52:18.668Z,-0.86
2023-01-29T09:53:19.039Z,-0.86
2023-01-29T09:54:17.485Z,-0.93
2023-01-29T09:55:18.349Z,-1.00
2023-01-29T09:56:18.361Z,-1.02
2023-01-29T09:57:18.720Z,-1.05
2023-01-29T09:58:19.192Z,-0.97
2023-01-29T09:59:18.595Z,-0.92
2023-01-29T10:00:19.070Z,-0.86
2023-01-29T10:01:18.557Z,-0.83
2023-01-29T10:02:19.316Z,-0.78
2023-01-29T10:03:17.391Z,-0.76
2023-01-29T10:04:17.867Z,-0.77
2023-01-29T10:05:17.645Z,-0.80
2023-01-29T10:06:17.739Z,-0.81
2023-01-29T10:07:18.164Z,-0.78
2023-01-29T10:08:17.547Z,-0.80
2023-01-29T10:09:17.969Z,-0.77
2023-01-29T10:10:17.396Z,-0.81
2023-01-29T10:11:17.860Z,-0.76
2023-01-29T10:12:17.250Z,-0.76
2023-01-29T10:13:17.690Z,-0.71
2023-01-29T10:14:18.160Z,-0.68
2023-01-29T10:15:17.932Z,-0.62
2023-01-29T10:16:18.946Z,-0.59
2023-01-29T10:17:17.502Z,-0.55
2023-01-29T10:18:17.871Z,-0.49
2023-01-29T10:19:18.178Z,-0.44
2023-01-29T10:20:18.594Z,-0.39
2023-01-29T10:21:17.010Z,-0.34
2023-01-29T10:22:18.391Z,-0.32
2023-01-29T10:23:18.851Z,-0.31
2023-01-29T10:24:18.269Z,-0.27
2023-01-29T10:25:19.135Z,-0.21
2023-01-29T10:26:17.096Z,-0.21
2023-01-29T10:27:17.511Z,-0.17
2023-01-29T10:28:17.924Z,-0.16
2023-01-29T10:29:18.300Z,-0.13
2023-01-29T10:30:18.775Z,-0.14
2023-01-29T10:31:18.279Z,-0.09
2023-01-29T10:32:18.637Z,-0.12
2023-01-29T10:33:17.281Z,-0.09
2023-01-29T10:34:17.481Z,-0.09
2023-01-29T10:35:18.182Z,-0.09
2023-01-29T10:36:17.280Z,-0.06
2023-01-29T10:37:17.733Z,-0.05
2023-01-29T10:38:19.179Z,-0.03
2023-01-29T10:39:17.537Z,-0.01
2023-01-29T10:40:16.940Z,0.02
2023-01-29T10:41:18.340Z,0.07
2023-01-29T10:42:18.690Z,0.07
2023-01-29T10:43:17.142Z,0.12
2023-01-29T10:44:18.508Z,0.10
2023-01-29T10:45:18.468Z,0.12
2023-01-29T10:46:18.365Z,0.16
2023-01-29T10:47:17.725Z,0.19
2023-01-29T10:48:17.205Z,0.23
2023-01-29T10:49:18.533Z,0.26
2023-01-29T10:50:17.223Z,0.37
2023-01-29T10:51:18.340Z,0.40
2023-01-29T10:52:17.705Z,0.45
2023-01-29T10:53:18.907Z,0.49
2023-01-29T10:54:18.479Z,0.60
2023-01-29T10:55:18.214Z,0.71
2023-01-29T10:56:23.041Z,0.75
2023-01-29T10:57:17.674Z,0.75
2023-01-29T10:58:17.088Z,0.77
2023-01-29T10:59:17.524Z,0.81
2023-01-29T11:00:17.941Z,0.86
2023-01-29T11:01:18.324Z,0.92
2023-01-29T11:02:16.742Z,0.99
2023-01-29T11:03:26.933Z,1.02
2023-01-29T11:04:17.502Z,1.08
2023-01-29T11:05:17.121Z,1.07
2023-01-29T11:06:17.249Z,1.10
2023-01-29T11:07:17.555Z,1.16
2023-01-29T11:08:21.153Z,1.14
2023-01-29T11:09:17.375Z,1.20
2023-01-29T11:10:16.980Z,1.17
2023-01-29T11:11:17.132Z,1.18
2023-01-29T11:12:17.510Z,1.20
2023-01-29T11:13:16.964Z,1.24
2023-01-29T11:14:16.313Z,1.25
2023-01-29T11:15:16.725Z,1.25
2023-01-29T11:16:18.650Z,1.29
2023-01-29T11:17:16.659Z,1.28
2023-01-29T11:18:16.945Z,1.31
2023-01-29T11:19:17.290Z,1.20
2023-01-29T11:20:17.062Z,1.11
2023-01-29T11:21:17.145Z,1.10
2023-01-29T11:22:17.503Z,1.14
2023-01-29T11:23:16.980Z,1.18
2023-01-29T11:24:16.295Z,1.26
2023-01-29T11:25:17.723Z,1.38
2023-01-29T11:26:17.333Z,1.44
2023-01-29T11:27:16.679Z,1.50
2023-01-29T11:28:17.116Z,1.54
2023-01-29T11:29:16.250Z,1.63
2023-01-29T11:30:18.019Z,1.63
2023-01-29T11:31:17.126Z,1.52
2023-01-29T11:32:16.405Z,1.47
2023-01-29T11:33:16.820Z,1.43
2023-01-29T11:34:16.241Z,1.35
2023-01-29T11:35:16.637Z,1.38
2023-01-29T11:36:17.166Z,1.36
2023-01-29T11:37:16.393Z,1.49
2023-01-29T11:38:17.748Z,1.56
2023-01-29T11:39:16.179Z,1.61
2023-01-29T11:40:16.985Z,1.67
2023-01-29T11:41:17.945Z,1.75
2023-01-29T11:42:17.339Z,1.81
2023-01-29T11:43:16.827Z,1.85
2023-01-29T11:44:16.997Z,1.81
2023-01-29T11:45:16.596Z,1.83
2023-01-29T11:46:16.978Z,1.88
2023-01-29T11:47:17.306Z,1.92
2023-01-29T11:48:17.747Z,1.95
2023-01-29T11:49:20.838Z,1.88
2023-01-29T11:50:17.927Z,1.81
2023-01-29T11:51:16.916Z,1.74
2023-01-29T11:52:16.514Z,1.77
2023-01-29T11:53:16.786Z,1.79
2023-01-29T12:40:48.072Z,2.56
2023-01-29T12:40:54.231Z,2.58
2023-01-29T12:41:54.671Z,2.55
2023-01-29T12:42:54.043Z,2.56
2023-01-29T12:43:54.436Z,2.58
2023-01-29T12:44:53.782Z,2.61
2023-01-29T12:45:54.349Z,2.63
2023-01-29T12:46:54.749Z,2.61
2023-01-29T12:47:53.973Z,2.65
2023-01-29T12:48:54.362Z,2.62
2023-01-29T12:49:54.777Z,2.58
2023-01-29T12:50:54.255Z,2.50
2023-01-29T12:51:54.552Z,2.51
2023-01-29T12:52:53.920Z,2.48
2023-01-29T12:53:54.287Z,2.48
2023-01-29T12:54:53.672Z,2.43
2023-01-29T12:55:55.006Z,2.33
2023-01-29T12:56:54.454Z,2.32
2023-01-29T12:57:53.925Z,2.33
2023-01-29T12:58:55.174Z,2.36
2023-01-29T12:59:54.657Z,2.29
2023-01-29T13:00:54.423Z,2.27
2023-01-29T13:01:55.412Z,2.23
2023-01-29T13:02:53.772Z,2.25
2023-01-29T13:03:54.198Z,2.27
2023-01-29T13:04:54.573Z,2.30
2023-01-29T13:05:53.910Z,2.36
2023-01-29T13:06:54.346Z,2.37
2023-01-29T13:07:53.682Z,2.37
2023-01-29T13:08:54.077Z,2.38
2023-01-29T13:11:09.410Z,2.47
2023-01-29T13:12:07.965Z,2.45
2023-01-29T13:13:07.056Z,2.48
2023-01-29T13:14:09.589Z,2.55
2023-01-29T13:15:08.910Z,2.63
2023-01-29T13:16:09.481Z,2.73
2023-01-29T13:17:08.706Z,2.73
2023-01-29T13:18:07.986Z,2.71
2023-01-29T13:19:08.395Z,2.66
2023-01-29T13:20:07.784Z,2.66
2023-01-29T13:21:08.187Z,2.68
2023-01-29T13:22:08.576Z,2.65
2023-01-29T13:23:09.187Z,2.68
2023-01-29T13:24:08.356Z,2.76
2023-01-29T13:25:07.720Z,2.80
2023-01-29T13:26:09.175Z,2.83
2023-01-29T13:27:08.465Z,2.97
2023-01-29T13:28:08.830Z,3.10
2023-01-29T13:29:11.375Z,3.15
2023-01-29T13:30:09.640Z,3.15
2023-01-29T13:31:07.903Z,3.12
2023-01-29T13:32:09.226Z,3.08
2023-01-29T13:33:09.701Z,3.13
2023-01-29T13:34:08.000Z,3.17
2023-01-29T13:35:08.437Z,3.19
2023-01-29T13:36:08.756Z,3.17
2023-01-29T13:37:09.141Z,3.13
2023-01-29T13:38:08.491Z,3.12
2023-01-29T13:39:07.834Z,3.07
2023-01-29T13:40:09.265Z,3.02
2023-01-29T13:41:06.594Z,2.97
2023-01-29T13:42:08.975Z,2.87
2023-01-29T13:43:08.345Z,2.80
2023-01-29T13:44:08.775Z,2.86